Dubai Fortune — H9SA — position and weather

sailwx.info

Track history (hours):
 
Tides and Currents Weather Stations Pressure Air Temp Water Temp Dewpoint Dewpoint Depression Visibility Wind Speed Wind Dir Waves Ship Positions

Dubai Fortune

Last reported at 2018-Feb-21 19:18 UTC. Time now 2018-Feb-22 03:13 UTC.
Position N 37°53' E 121°32'.

Length 188 m; draft 11.3 m.

Type: Cargo ship. MMSI: 353316000.

Date/timePositionNaut miles runAvg speedWind from/ knotsBaromVisibWave heightAir tempDewpointWater temp
2018-Feb-21 19:18N 37°53' E 121°32'611.5
2018-Feb-21 18:47N 37°51' E 121°39'311.4
2018-Feb-21 18:30N 37°50' E 121°43'1711.3
2018-Feb-21 17:02N 37°46' E 122°03'  
2018-Feb-18 15:37N 25°05' E 119°56'111.7
2018-Feb-18 15:31N 25°04' E 119°55'7812.5
2018-Feb-18 09:16N 24°16' E 118°48'310.7
2018-Feb-18 08:59N 24°14' E 118°45'610.9
2018-Feb-18 08:26N 24°11' E 118°40'510.6
2018-Feb-18 07:57N 24°07' E 118°36'510.8
2018-Feb-18 07:30N 24°04' E 118°32'510.7
2018-Feb-18 07:00N 24°01' E 118°27'510.5
2018-Feb-18 06:30N 23°58' E 118°22'710.7
2018-Feb-18 05:52N 23°54' E 118°17'411.0
2018-Feb-18 05:28N 23°51' E 118°13'511.3
2018-Feb-18 05:00N 23°48' E 118°08'1011.6
2018-Feb-18 04:09N 23°42' E 117°59'211.9
2018-Feb-18 03:59N 23°41' E 117°58'612.2
2018-Feb-18 03:27N 23°36' E 117°52'612.4
2018-Feb-18 03:00N 23°33' E 117°48'612.5
2018-Feb-18 02:30N 23°29' E 117°42'612.4
2018-Feb-18 02:00N 23°25' E 117°37'612.0
2018-Feb-18 01:30N 23°21' E 117°33'611.6
2018-Feb-18 01:00N 23°16' E 117°29'  
Track history (hours):
 
Tides and Currents Weather Stations Pressure Air Temp Water Temp Dewpoint Dewpoint Depression Visibility Wind Speed Wind Dir Waves Ship Positions

Dubai Fortune

Last reported at 2018-Feb-21 19:18 UTC. Time now 2018-Feb-22 03:13 UTC.
Position N 37°53' E 121°32'.

Length 188 m; draft 11.3 m.

Type: Cargo ship. MMSI: 353316000.

Date/timePositionNaut miles runAvg speedWind from/ knotsBaromVisibWave heightAir tempDewpointWater temp
2018-Feb-21 19:18N 37°53' E 121°32'611.5
2018-Feb-21 18:47N 37°51' E 121°39'311.4
2018-Feb-21 18:30N 37°50' E 121°43'1711.3
2018-Feb-21 17:02N 37°46' E 122°03'  
2018-Feb-18 15:37N 25°05' E 119°56'111.7
2018-Feb-18 15:31N 25°04' E 119°55'7812.5
2018-Feb-18 09:16N 24°16' E 118°48'310.7
2018-Feb-18 08:59N 24°14' E 118°45'610.9
2018-Feb-18 08:26N 24°11' E 118°40'510.6
2018-Feb-18 07:57N 24°07' E 118°36'510.8
2018-Feb-18 07:30N 24°04' E 118°32'510.7
2018-Feb-18 07:00N 24°01' E 118°27'510.5
2018-Feb-18 06:30N 23°58' E 118°22'710.7
2018-Feb-18 05:52N 23°54' E 118°17'411.0
2018-Feb-18 05:28N 23°51' E 118°13'511.3
2018-Feb-18 05:00N 23°48' E 118°08'1011.6
2018-Feb-18 04:09N 23°42' E 117°59'211.9
2018-Feb-18 03:59N 23°41' E 117°58'612.2
2018-Feb-18 03:27N 23°36' E 117°52'612.4
2018-Feb-18 03:00N 23°33' E 117°48'612.5
2018-Feb-18 02:30N 23°29' E 117°42'612.4
2018-Feb-18 02:00N 23°25' E 117°37'612.0
2018-Feb-18 01:30N 23°21' E 117°33'611.6
2018-Feb-18 01:00N 23°16' E 117°29'  

Dump ship's entire track history